Date,TemperatureHighF,TemperatureAvgF,TemperatureLowF,DewpointHighF,DewpointAvgF,DewpointLowF,HumidityHigh,HumidityAvg,HumidityLow,PressureMaxIn,PressureMinIn,WindSpeedMaxMPH,WindSpeedAvgMPH,GustSpeedMaxMPH,PrecipitationSumIn
2013-7-10,78,74,66,61,54,50,80,49,38,0.00,40.00,11,6,19,0.00
2013-7-11,82,71,61,61,58,55,90,65,45,0.00,40.00,21,10,29,0.00
2013-7-12,88,79,69,70,64,59,77,60,53,0.00,40.00,29,18,38,0.01
2013-7-13,77,72,70,70,66,64,91,82,72,0.00,40.00,15,9,20,0.01
2013-7-14,71,68,65,66,65,63,93,90,82,0.00,40.00,12,6,17,0.01
2013-7-15,85,74,67,70,66,63,92,77,47,0.00,40.00,15,7,21,0.01
2013-7-16,87,79,72,70,68,64,88,68,47,0.00,40.00,17,10,23,0.00
2013-7-17,89,80,73,72,68,66,81,67,49,0.00,40.00,15,9,22,0.00
2013-7-18,90,82,74,73,70,68,85,68,52,0.00,40.00,24,14,32,0.00
2013-7-19,81,74,63,73,63,59,92,68,48,0.00,40.00,27,10,35,0.00
2013-7-22,76,71,62,63,56,52,75,59,52,0.00,40.00,19,13,27,0.00
2013-7-23,74,66,58,55,53,48,87,64,42,0.00,40.00,10,6,14,0.00
2013-7-24,78,68,61,61,56,50,86,65,43,0.00,40.00,10,5,16,0.00
2013-7-25,76,68,62,61,59,52,92,73,49,0.00,40.00,13,6,18,0.01
2013-7-26,65,60,53,55,50,43,92,69,50,0.00,40.00,20,11,31,0.00
2013-7-27,67,58,49,46,44,41,83,61,40,0.00,40.00,21,10,27,0.00
2013-7-28,74,62,51,54,47,43,79,59,40,0.00,40.00,17,8,23,0.00
2013-7-29,73,62,54,59,53,48,91,74,42,0.00,40.00,14,6,19,0.00
2013-7-30,77,66,60,63,60,57,93,79,52,0.00,40.00,11,5,14,0.00
2013-7-31,77,68,61,63,53,45,92,62,35,0.00,40.00,18,8,28,0.00